sensor_id;sensor_type;location;lat;lon;timestamp;P1;durP1;ratioP1;P2;durP2;ratioP2
70010;SDS011;59543;37.950;-122.338;2022-10-19T00:02:13;9.13;;;4.22;;
70010;SDS011;59543;37.950;-122.338;2022-10-19T00:04:39;10.85;;;5.00;;
70010;SDS011;59543;37.950;-122.338;2022-10-19T00:07:05;12.30;;;4.80;;
70010;SDS011;59543;37.950;-122.338;2022-10-19T00:09:31;13.02;;;4.50;;
70010;SDS011;59543;37.950;-122.338;2022-10-19T00:11:57;15.25;;;4.72;;
70010;SDS011;59543;37.950;-122.338;2022-10-19T00:14:24;12.60;;;4.47;;
70010;SDS011;59543;37.950;-122.338;2022-10-19T00:16:51;14.93;;;4.07;;
70010;SDS011;59543;37.950;-122.338;2022-10-19T00:19:19;15.52;;;4.40;;
70010;SDS011;59543;37.950;-122.338;2022-10-19T00:21:48;19.30;;;5.13;;
70010;SDS011;59543;37.950;-122.338;2022-10-19T00:24:15;14.23;;;5.20;;
70010;SDS011;59543;37.950;-122.338;2022-10-19T00:26:41;18.77;;;4.75;;
70010;SDS011;59543;37.950;-122.338;2022-10-19T00:29:09;21.58;;;5.78;;
70010;SDS011;59543;37.950;-122.338;2022-10-19T00:31:36;15.52;;;6.50;;
70010;SDS011;59543;37.950;-122.338;2022-10-19T00:34:03;29.83;;;6.00;;
70010;SDS011;59543;37.950;-122.338;2022-10-19T00:36:31;17.63;;;5.90;;
70010;SDS011;59543;37.950;-122.338;2022-10-19T00:38:59;15.80;;;6.15;;
70010;SDS011;59543;37.950;-122.338;2022-10-19T00:41:28;21.42;;;6.13;;
70010;SDS011;59543;37.950;-122.338;2022-10-19T00:46:27;25.33;;;5.95;;
70010;SDS011;59543;37.950;-122.338;2022-10-19T00:48:57;17.27;;;5.82;;
70010;SDS011;59543;37.950;-122.338;2022-10-19T00:51:27;16.63;;;5.07;;
70010;SDS011;59543;37.950;-122.338;2022-10-19T00:53:55;20.23;;;6.45;;
70010;SDS011;59543;37.950;-122.338;2022-10-19T00:56:21;16.90;;;6.22;;
70010;SDS011;59543;37.950;-122.338;2022-10-19T00:58:48;20.38;;;7.35;;
70010;SDS011;59543;37.950;-122.338;2022-10-19T01:01:15;39.42;;;7.32;;
70010;SDS011;59543;37.950;-122.338;2022-10-19T01:03:43;15.43;;;6.20;;
70010;SDS011;59543;37.950;-122.338;2022-10-19T01:06:11;24.05;;;6.15;;
70010;SDS011;59543;37.950;-122.338;2022-10-19T01:08:39;22.05;;;5.55;;
70010;SDS011;59543;37.950;-122.338;2022-10-19T01:38:46;24.92;;;6.57;;
70010;SDS011;59543;37.950;-122.338;2022-10-19T01:44:36;32.15;;;6.65;;
70010;SDS011;59543;37.950;-122.338;2022-10-19T01:47:35;19.05;;;6.47;;
70010;SDS011;59543;37.950;-122.338;2022-10-19T01:53:10;16.13;;;7.30;;
70010;SDS011;59543;37.950;-122.338;2022-10-19T01:55:40;14.82;;;6.90;;
70010;SDS011;59543;37.950;-122.338;2022-10-19T01:58:10;20.00;;;6.90;;
70010;SDS011;59543;37.950;-122.338;2022-10-19T02:00:41;19.77;;;6.50;;
70010;SDS011;59543;37.950;-122.338;2022-10-19T02:03:10;17.30;;;7.15;;
70010;SDS011;59543;37.950;-122.338;2022-10-19T02:05:38;16.00;;;6.80;;
70010;SDS011;59543;37.950;-122.338;2022-10-19T02:08:25;21.27;;;6.95;;
70010;SDS011;59543;37.950;-122.338;2022-10-19T02:11:01;20.25;;;6.55;;
70010;SDS011;59543;37.950;-122.338;2022-10-19T02:13:28;16.02;;;7.25;;
70010;SDS011;59543;37.950;-122.338;2022-10-19T02:15:57;26.60;;;7.93;;
70010;SDS011;59543;37.950;-122.338;2022-10-19T02:18:28;20.55;;;7.75;;
70010;SDS011;59543;37.950;-122.338;2022-10-19T02:21:00;20.73;;;8.57;;
70010;SDS011;59543;37.950;-122.338;2022-10-19T02:23:28;15.07;;;7.95;;
70010;SDS011;59543;37.950;-122.338;2022-10-19T02:25:55;16.45;;;7.72;;
70010;SDS011;59543;37.950;-122.338;2022-10-19T02:28:22;21.48;;;7.53;;
70010;SDS011;59543;37.950;-122.338;2022-10-19T02:30:49;17.98;;;6.88;;
70010;SDS011;59543;37.950;-122.338;2022-10-19T02:33:15;21.05;;;7.15;;
70010;SDS011;59543;37.950;-122.338;2022-10-19T02:35:42;26.33;;;8.98;;
70010;SDS011;59543;37.950;-122.338;2022-10-19T02:38:09;25.38;;;7.40;;
70010;SDS011;59543;37.950;-122.338;2022-10-19T02:40:42;18.73;;;6.75;;
70010;SDS011;59543;37.950;-122.338;2022-10-19T02:43:15;15.40;;;6.88;;
70010;SDS011;59543;37.950;-122.338;2022-10-19T02:45:47;20.13;;;7.10;;
70010;SDS011;59543;37.950;-122.338;2022-10-19T02:48:19;20.83;;;7.40;;
70010;SDS011;59543;37.950;-122.338;2022-10-19T02:50:48;17.13;;;7.28;;
70010;SDS011;59543;37.950;-122.338;2022-10-19T02:53:14;21.98;;;6.35;;
70010;SDS011;59543;37.950;-122.338;2022-10-19T02:55:41;14.23;;;5.90;;
70010;SDS011;59543;37.950;-122.338;2022-10-19T02:58:07;22.92;;;6.30;;
70010;SDS011;59543;37.950;-122.338;2022-10-19T03:00:34;18.20;;;6.25;;
70010;SDS011;59543;37.950;-122.338;2022-10-19T03:03:00;20.73;;;6.38;;
70010;SDS011;59543;37.950;-122.338;2022-10-19T03:05:27;28.77;;;7.18;;
70010;SDS011;59543;37.950;-122.338;2022-10-19T03:07:54;27.40;;;6.47;;
70010;SDS011;59543;37.950;-122.338;2022-10-19T03:10:20;22.60;;;6.45;;
70010;SDS011;59543;37.950;-122.338;2022-10-19T03:12:46;23.25;;;6.70;;
70010;SDS011;59543;37.950;-122.338;2022-10-19T03:15:14;20.58;;;6.32;;
70010;SDS011;59543;37.950;-122.338;2022-10-19T03:17:42;17.92;;;5.90;;
70010;SDS011;59543;37.950;-122.338;2022-10-19T03:20:08;16.73;;;5.93;;
70010;SDS011;59543;37.950;-122.338;2022-10-19T03:22:36;17.83;;;6.65;;
70010;SDS011;59543;37.950;-122.338;2022-10-19T03:25:02;27.25;;;6.70;;
70010;SDS011;59543;37.950;-122.338;2022-10-19T03:27:29;19.77;;;5.70;;
70010;SDS011;59543;37.950;-122.338;2022-10-19T03:29:55;12.50;;;6.40;;
70010;SDS011;59543;37.950;-122.338;2022-10-19T03:32:21;13.73;;;5.63;;
70010;SDS011;59543;37.950;-122.338;2022-10-19T03:34:47;18.02;;;6.18;;
70010;SDS011;59543;37.950;-122.338;2022-10-19T03:37:13;19.05;;;6.80;;
70010;SDS011;59543;37.950;-122.338;2022-10-19T03:39:39;20.08;;;6.60;;
70010;SDS011;59543;37.950;-122.338;2022-10-19T03:42:06;12.13;;;6.15;;
70010;SDS011;59543;37.950;-122.338;2022-10-19T03:44:32;10.63;;;5.47;;
70010;SDS011;59543;37.950;-122.338;2022-10-19T03:46:58;15.25;;;6.53;;
70010;SDS011;59543;37.950;-122.338;2022-10-19T03:49:24;11.38;;;5.88;;
70010;SDS011;59543;37.950;-122.338;2022-10-19T03:51:50;15.30;;;6.53;;
70010;SDS011;59543;37.950;-122.338;2022-10-19T03:54:16;13.15;;;6.65;;
70010;SDS011;59543;37.950;-122.338;2022-10-19T03:56:43;11.35;;;5.88;;
70010;SDS011;59543;37.950;-122.338;2022-10-19T03:59:10;15.13;;;7.00;;
70010;SDS011;59543;37.950;-122.338;2022-10-19T04:01:40;14.50;;;6.93;;
70010;SDS011;59543;37.950;-122.338;2022-10-19T04:04:09;15.38;;;6.03;;
70010;SDS011;59543;37.950;-122.338;2022-10-19T04:06:38;19.73;;;6.13;;
70010;SDS011;59543;37.950;-122.338;2022-10-19T04:09:06;20.15;;;6.63;;
70010;SDS011;59543;37.950;-122.338;2022-10-19T04:11:34;17.83;;;6.55;;
70010;SDS011;59543;37.950;-122.338;2022-10-19T04:14:01;19.08;;;5.95;;
70010;SDS011;59543;37.950;-122.338;2022-10-19T04:16:28;15.93;;;6.45;;
70010;SDS011;59543;37.950;-122.338;2022-10-19T04:18:55;15.88;;;6.20;;
70010;SDS011;59543;37.950;-122.338;2022-10-19T04:21:23;19.13;;;6.25;;
70010;SDS011;59543;37.950;-122.338;2022-10-19T04:23:59;18.48;;;6.07;;
70010;SDS011;59543;37.950;-122.338;2022-10-19T04:26:30;11.02;;;5.93;;
70010;SDS011;59543;37.950;-122.338;2022-10-19T04:28:57;10.77;;;5.72;;
70010;SDS011;59543;37.950;-122.338;2022-10-19T04:31:25;17.27;;;6.18;;
70010;SDS011;59543;37.950;-122.338;2022-10-19T04:33:52;14.90;;;5.68;;
70010;SDS011;59543;37.950;-122.338;2022-10-19T04:36:19;23.35;;;6.10;;
70010;SDS011;59543;37.950;-122.338;2022-10-19T04:38:45;15.48;;;6.10;;
70010;SDS011;59543;37.950;-122.338;2022-10-19T04:41:13;20.63;;;5.88;;
70010;SDS011;59543;37.950;-122.338;2022-10-19T04:43:41;14.52;;;5.65;;
70010;SDS011;59543;37.950;-122.338;2022-10-19T04:46:10;15.82;;;5.75;;
70010;SDS011;59543;37.950;-122.338;2022-10-19T04:48:38;9.35;;;5.50;;
70010;SDS011;59543;37.950;-122.338;2022-10-19T04:51:06;16.52;;;6.30;;
70010;SDS011;59543;37.950;-122.338;2022-10-19T04:53:33;12.70;;;6.15;;
70010;SDS011;59543;37.950;-122.338;2022-10-19T04:56:04;13.13;;;5.85;;
70010;SDS011;59543;37.950;-122.338;2022-10-19T04:58:36;16.10;;;6.15;;
70010;SDS011;59543;37.950;-122.338;2022-10-19T05:01:07;11.10;;;5.72;;
70010;SDS011;59543;37.950;-122.338;2022-10-19T05:03:33;14.00;;;6.75;;
70010;SDS011;59543;37.950;-122.338;2022-10-19T05:06:00;16.63;;;6.05;;
70010;SDS011;59543;37.950;-122.338;2022-10-19T05:08:26;15.15;;;6.70;;
70010;SDS011;59543;37.950;-122.338;2022-10-19T05:10:52;14.88;;;5.82;;
70010;SDS011;59543;37.950;-122.338;2022-10-19T05:13:18;28.48;;;6.55;;
70010;SDS011;59543;37.950;-122.338;2022-10-19T05:15:53;12.00;;;6.00;;
70010;SDS011;59543;37.950;-122.338;2022-10-19T05:18:23;14.32;;;5.70;;
70010;SDS011;59543;37.950;-122.338;2022-10-19T05:20:50;15.63;;;6.28;;
70010;SDS011;59543;37.950;-122.338;2022-10-19T05:23:16;19.80;;;6.82;;
70010;SDS011;59543;37.950;-122.338;2022-10-19T05:25:42;11.18;;;5.80;;
70010;SDS011;59543;37.950;-122.338;2022-10-19T05:28:08;13.75;;;6.03;;
70010;SDS011;59543;37.950;-122.338;2022-10-19T05:30:34;19.00;;;6.72;;
70010;SDS011;59543;37.950;-122.338;2022-10-19T05:33:01;11.60;;;6.47;;
70010;SDS011;59543;37.950;-122.338;2022-10-19T05:35:27;12.90;;;6.82;;
70010;SDS011;59543;37.950;-122.338;2022-10-19T05:37:54;12.35;;;5.80;;
70010;SDS011;59543;37.950;-122.338;2022-10-19T05:40:20;14.10;;;7.03;;
70010;SDS011;59543;37.950;-122.338;2022-10-19T05:42:46;14.30;;;6.45;;
70010;SDS011;59543;37.950;-122.338;2022-10-19T05:45:12;16.85;;;6.53;;
70010;SDS011;59543;37.950;-122.338;2022-10-19T05:47:38;14.48;;;6.25;;
70010;SDS011;59543;37.950;-122.338;2022-10-19T05:50:05;12.25;;;6.63;;
70010;SDS011;59543;37.950;-122.338;2022-10-19T05:52:31;13.77;;;6.72;;
70010;SDS011;59543;37.950;-122.338;2022-10-19T05:54:57;15.98;;;6.38;;
70010;SDS011;59543;37.950;-122.338;2022-10-19T05:57:23;14.90;;;6.28;;
70010;SDS011;59543;37.950;-122.338;2022-10-19T05:59:50;25.23;;;6.00;;
70010;SDS011;59543;37.950;-122.338;2022-10-19T06:02:16;13.80;;;5.95;;
70010;SDS011;59543;37.950;-122.338;2022-10-19T06:04:42;19.48;;;6.38;;
70010;SDS011;59543;37.950;-122.338;2022-10-19T06:07:08;12.00;;;6.50;;
70010;SDS011;59543;37.950;-122.338;2022-10-19T06:09:34;15.27;;;6.28;;
70010;SDS011;59543;37.950;-122.338;2022-10-19T06:12:02;10.70;;;6.18;;
70010;SDS011;59543;37.950;-122.338;2022-10-19T06:14:28;11.88;;;6.45;;
70010;SDS011;59543;37.950;-122.338;2022-10-19T06:16:54;23.08;;;7.10;;
70010;SDS011;59543;37.950;-122.338;2022-10-19T06:19:20;16.70;;;6.78;;
70010;SDS011;59543;37.950;-122.338;2022-10-19T06:21:46;17.40;;;6.50;;
70010;SDS011;59543;37.950;-122.338;2022-10-19T06:24:13;14.45;;;6.78;;
70010;SDS011;59543;37.950;-122.338;2022-10-19T06:26:39;18.42;;;6.78;;
70010;SDS011;59543;37.950;-122.338;2022-10-19T06:29:05;14.90;;;6.45;;
70010;SDS011;59543;37.950;-122.338;2022-10-19T06:31:33;13.95;;;6.70;;
70010;SDS011;59543;37.950;-122.338;2022-10-19T06:34:02;20.00;;;6.78;;
70010;SDS011;59543;37.950;-122.338;2022-10-19T06:36:29;15.02;;;6.68;;
70010;SDS011;59543;37.950;-122.338;2022-10-19T06:38:56;12.93;;;6.63;;
70010;SDS011;59543;37.950;-122.338;2022-10-19T06:41:25;23.65;;;7.20;;
70010;SDS011;59543;37.950;-122.338;2022-10-19T06:43:52;18.92;;;7.10;;
70010;SDS011;59543;37.950;-122.338;2022-10-19T06:46:20;25.90;;;6.90;;
70010;SDS011;59543;37.950;-122.338;2022-10-19T06:51:21;16.88;;;6.72;;
70010;SDS011;59543;37.950;-122.338;2022-10-19T06:53:49;14.85;;;6.43;;
70010;SDS011;59543;37.950;-122.338;2022-10-19T06:56:16;16.55;;;6.88;;
70010;SDS011;59543;37.950;-122.338;2022-10-19T06:58:42;15.52;;;6.70;;
70010;SDS011;59543;37.950;-122.338;2022-10-19T07:01:09;19.13;;;6.10;;
70010;SDS011;59543;37.950;-122.338;2022-10-19T07:03:38;13.07;;;5.78;;
70010;SDS011;59543;37.950;-122.338;2022-10-19T07:06:06;19.73;;;6.20;;
70010;SDS011;59543;37.950;-122.338;2022-10-19T07:08:35;23.60;;;5.93;;
70010;SDS011;59543;37.950;-122.338;2022-10-19T07:11:04;13.43;;;5.78;;
70010;SDS011;59543;37.950;-122.338;2022-10-19T07:13:32;16.90;;;6.30;;
70010;SDS011;59543;37.950;-122.338;2022-10-19T07:16:06;18.92;;;6.25;;
70010;SDS011;59543;37.950;-122.338;2022-10-19T07:18:36;12.85;;;6.07;;
70010;SDS011;59543;37.950;-122.338;2022-10-19T07:21:05;9.82;;;5.53;;
70010;SDS011;59543;37.950;-122.338;2022-10-19T07:23:34;18.50;;;6.13;;
70010;SDS011;59543;37.950;-122.338;2022-10-19T07:26:05;17.25;;;6.68;;
70010;SDS011;59543;37.950;-122.338;2022-10-19T07:28:40;14.10;;;6.13;;
70010;SDS011;59543;37.950;-122.338;2022-10-19T07:31:08;15.38;;;6.38;;
70010;SDS011;59543;37.950;-122.338;2022-10-19T07:33:37;23.25;;;6.45;;
70010;SDS011;59543;37.950;-122.338;2022-10-19T07:36:05;12.68;;;5.97;;
70010;SDS011;59543;37.950;-122.338;2022-10-19T07:38:33;21.45;;;6.03;;
70010;SDS011;59543;37.950;-122.338;2022-10-19T07:41:01;22.65;;;6.28;;
70010;SDS011;59543;37.950;-122.338;2022-10-19T07:43:30;19.02;;;6.13;;
70010;SDS011;59543;37.950;-122.338;2022-10-19T07:45:57;12.63;;;5.72;;
70010;SDS011;59543;37.950;-122.338;2022-10-19T07:48:25;16.08;;;6.18;;
70010;SDS011;59543;37.950;-122.338;2022-10-19T07:50:51;15.43;;;6.03;;
70010;SDS011;59543;37.950;-122.338;2022-10-19T07:53:17;11.57;;;6.35;;
70010;SDS011;59543;37.950;-122.338;2022-10-19T07:55:44;15.27;;;6.43;;
70010;SDS011;59543;37.950;-122.338;2022-10-19T07:58:10;16.40;;;5.88;;
70010;SDS011;59543;37.950;-122.338;2022-10-19T08:00:36;13.95;;;5.43;;
70010;SDS011;59543;37.950;-122.338;2022-10-19T08:03:02;20.55;;;6.15;;
70010;SDS011;59543;37.950;-122.338;2022-10-19T08:05:31;15.93;;;6.00;;
70010;SDS011;59543;37.950;-122.338;2022-10-19T08:07:57;20.20;;;6.13;;
70010;SDS011;59543;37.950;-122.338;2022-10-19T08:10:24;23.15;;;6.30;;
70010;SDS011;59543;37.950;-122.338;2022-10-19T08:12:50;14.38;;;5.70;;
70010;SDS011;59543;37.950;-122.338;2022-10-19T08:15:16;21.00;;;6.15;;
70010;SDS011;59543;37.950;-122.338;2022-10-19T08:17:42;19.40;;;7.03;;
70010;SDS011;59543;37.950;-122.338;2022-10-19T08:20:08;14.60;;;6.13;;
70010;SDS011;59543;37.950;-122.338;2022-10-19T08:22:35;14.80;;;6.43;;
70010;SDS011;59543;37.950;-122.338;2022-10-19T08:25:01;18.02;;;6.30;;
70010;SDS011;59543;37.950;-122.338;2022-10-19T08:27:28;12.50;;;6.25;;
70010;SDS011;59543;37.950;-122.338;2022-10-19T08:29:54;11.48;;;6.07;;
70010;SDS011;59543;37.950;-122.338;2022-10-19T08:32:20;17.40;;;6.47;;
70010;SDS011;59543;37.950;-122.338;2022-10-19T08:34:47;16.67;;;6.30;;
70010;SDS011;59543;37.950;-122.338;2022-10-19T08:37:13;16.42;;;6.13;;
70010;SDS011;59543;37.950;-122.338;2022-10-19T08:39:39;20.60;;;6.63;;
70010;SDS011;59543;37.950;-122.338;2022-10-19T08:42:42;13.00;;;5.32;;
70010;SDS011;59543;37.950;-122.338;2022-10-19T08:47:57;26.83;;;6.25;;
70010;SDS011;59543;37.950;-122.338;2022-10-19T08:50:33;19.58;;;6.00;;
70010;SDS011;59543;37.950;-122.338;2022-10-19T08:53:05;19.73;;;6.30;;
70010;SDS011;59543;37.950;-122.338;2022-10-19T09:01:03;12.48;;;5.43;;
70010;SDS011;59543;37.950;-122.338;2022-10-19T09:03:37;16.42;;;5.57;;
70010;SDS011;59543;37.950;-122.338;2022-10-19T09:06:25;14.80;;;5.80;;
70010;SDS011;59543;37.950;-122.338;2022-10-19T09:08:52;14.05;;;5.65;;
70010;SDS011;59543;37.950;-122.338;2022-10-19T09:11:23;15.13;;;5.82;;
70010;SDS011;59543;37.950;-122.338;2022-10-19T09:14:37;17.70;;;5.85;;
70010;SDS011;59543;37.950;-122.338;2022-10-19T09:16:42;17.23;;;5.82;;
70010;SDS011;59543;37.950;-122.338;2022-10-19T09:19:12;11.10;;;5.55;;
70010;SDS011;59543;37.950;-122.338;2022-10-19T09:22:00;14.75;;;5.60;;
70010;SDS011;59543;37.950;-122.338;2022-10-19T09:27:42;16.27;;;5.65;;
70010;SDS011;59543;37.950;-122.338;2022-10-19T09:30:04;15.70;;;5.35;;
70010;SDS011;59543;37.950;-122.338;2022-10-19T09:32:40;22.17;;;6.18;;
70010;SDS011;59543;37.950;-122.338;2022-10-19T09:37:58;15.45;;;5.55;;
70010;SDS011;59543;37.950;-122.338;2022-10-19T09:40:26;13.30;;;5.55;;
70010;SDS011;59543;37.950;-122.338;2022-10-19T09:42:55;13.65;;;5.68;;
70010;SDS011;59543;37.950;-122.338;2022-10-19T09:48:14;14.77;;;5.63;;
70010;SDS011;59543;37.950;-122.338;2022-10-19T09:50:50;12.30;;;5.57;;
70010;SDS011;59543;37.950;-122.338;2022-10-19T09:53:21;12.35;;;5.57;;
70010;SDS011;59543;37.950;-122.338;2022-10-19T09:58:20;14.18;;;5.80;;
70010;SDS011;59543;37.950;-122.338;2022-10-19T10:00:51;16.30;;;5.95;;
70010;SDS011;59543;37.950;-122.338;2022-10-19T10:03:23;11.38;;;5.50;;
70010;SDS011;59543;37.950;-122.338;2022-10-19T10:05:55;15.88;;;5.07;;
70010;SDS011;59543;37.950;-122.338;2022-10-19T10:08:25;23.42;;;6.03;;
70010;SDS011;59543;37.950;-122.338;2022-10-19T10:13:23;16.13;;;5.38;;
70010;SDS011;59543;37.950;-122.338;2022-10-19T10:15:55;17.70;;;5.47;;
70010;SDS011;59543;37.950;-122.338;2022-10-19T10:18:25;16.05;;;5.50;;
70010;SDS011;59543;37.950;-122.338;2022-10-19T10:20:59;16.30;;;5.43;;
70010;SDS011;59543;37.950;-122.338;2022-10-19T10:23:44;14.00;;;5.25;;
70010;SDS011;59543;37.950;-122.338;2022-10-19T10:26:29;15.77;;;5.20;;
70010;SDS011;59543;37.950;-122.338;2022-10-19T10:28:56;13.82;;;5.20;;
70010;SDS011;59543;37.950;-122.338;2022-10-19T10:31:23;20.35;;;5.30;;
70010;SDS011;59543;37.950;-122.338;2022-10-19T10:33:57;17.92;;;5.78;;
70010;SDS011;59543;37.950;-122.338;2022-10-19T10:36:29;10.95;;;5.15;;
70010;SDS011;59543;37.950;-122.338;2022-10-19T10:39:05;13.10;;;5.68;;
70010;SDS011;59543;37.950;-122.338;2022-10-19T10:44:07;11.75;;;5.30;;
70010;SDS011;59543;37.950;-122.338;2022-10-19T10:46:50;14.07;;;5.80;;
70010;SDS011;59543;37.950;-122.338;2022-10-19T10:49:22;12.15;;;5.25;;
70010;SDS011;59543;37.950;-122.338;2022-10-19T10:51:59;11.73;;;5.68;;
70010;SDS011;59543;37.950;-122.338;2022-10-19T10:54:30;12.20;;;5.82;;
70010;SDS011;59543;37.950;-122.338;2022-10-19T11:02:20;13.23;;;5.60;;
70010;SDS011;59543;37.950;-122.338;2022-10-19T11:04:59;12.98;;;6.00;;
70010;SDS011;59543;37.950;-122.338;2022-10-19T11:07:41;21.33;;;6.13;;
70010;SDS011;59543;37.950;-122.338;2022-10-19T11:10:16;12.27;;;5.85;;
70010;SDS011;59543;37.950;-122.338;2022-10-19T11:12:45;12.93;;;6.07;;
70010;SDS011;59543;37.950;-122.338;2022-10-19T11:17:56;17.23;;;5.43;;
70010;SDS011;59543;37.950;-122.338;2022-10-19T11:20:23;16.58;;;5.60;;
70010;SDS011;59543;37.950;-122.338;2022-10-19T11:23:00;14.05;;;5.07;;
70010;SDS011;59543;37.950;-122.338;2022-10-19T11:34:26;12.48;;;5.38;;
70010;SDS011;59543;37.950;-122.338;2022-10-19T11:37:18;12.40;;;5.47;;
70010;SDS011;59543;37.950;-122.338;2022-10-19T11:40:18;15.02;;;5.68;;
70010;SDS011;59543;37.950;-122.338;2022-10-19T11:43:19;14.03;;;5.83;;
70010;SDS011;59543;37.950;-122.338;2022-10-19T11:46:07;13.30;;;5.80;;
70010;SDS011;59543;37.950;-122.338;2022-10-19T11:51:50;12.27;;;5.57;;
70010;SDS011;59543;37.950;-122.338;2022-10-19T11:54:30;13.18;;;5.57;;
70010;SDS011;59543;37.950;-122.338;2022-10-19T11:59:55;17.55;;;5.68;;
70010;SDS011;59543;37.950;-122.338;2022-10-19T12:05:12;11.55;;;5.18;;
70010;SDS011;59543;37.950;-122.338;2022-10-19T12:08:21;19.33;;;5.35;;
70010;SDS011;59543;37.950;-122.338;2022-10-19T12:11:21;17.23;;;5.38;;
70010;SDS011;59543;37.950;-122.338;2022-10-19T12:14:16;14.15;;;5.47;;
70010;SDS011;59543;37.950;-122.338;2022-10-19T12:16:49;15.27;;;6.13;;
70010;SDS011;59543;37.950;-122.338;2022-10-19T12:19:24;16.30;;;4.80;;
70010;SDS011;59543;37.950;-122.338;2022-10-19T12:22:00;16.58;;;5.57;;
70010;SDS011;59543;37.950;-122.338;2022-10-19T12:24:29;19.17;;;5.55;;
70010;SDS011;59543;37.950;-122.338;2022-10-19T12:26:58;13.23;;;5.15;;
70010;SDS011;59543;37.950;-122.338;2022-10-19T12:29:33;9.90;;;5.20;;
70010;SDS011;59543;37.950;-122.338;2022-10-19T12:32:04;18.80;;;5.72;;
70010;SDS011;59543;37.950;-122.338;2022-10-19T12:48:20;12.07;;;5.30;;
70010;SDS011;59543;37.950;-122.338;2022-10-19T12:53:26;10.60;;;4.68;;
70010;SDS011;59543;37.950;-122.338;2022-10-19T12:56:04;15.75;;;4.93;;
70010;SDS011;59543;37.950;-122.338;2022-10-19T13:01:07;12.65;;;5.10;;
70010;SDS011;59543;37.950;-122.338;2022-10-19T13:04:10;6.32;;;4.30;;
70010;SDS011;59543;37.950;-122.338;2022-10-19T13:06:41;10.23;;;5.15;;
70010;SDS011;59543;37.950;-122.338;2022-10-19T13:09:33;17.58;;;5.47;;
70010;SDS011;59543;37.950;-122.338;2022-10-19T13:12:47;10.65;;;4.90;;
70010;SDS011;59543;37.950;-122.338;2022-10-19T13:14:52;13.45;;;5.20;;
70010;SDS011;59543;37.950;-122.338;2022-10-19T13:22:39;12.55;;;5.10;;
70010;SDS011;59543;37.950;-122.338;2022-10-19T13:27:41;14.05;;;4.80;;
70010;SDS011;59543;37.950;-122.338;2022-10-19T13:36:09;11.93;;;5.97;;
70010;SDS011;59543;37.950;-122.338;2022-10-19T13:41:24;12.02;;;4.85;;
70010;SDS011;59543;37.950;-122.338;2022-10-19T13:44:02;12.48;;;5.38;;
70010;SDS011;59543;37.950;-122.338;2022-10-19T13:54:05;13.15;;;5.30;;
70010;SDS011;59543;37.950;-122.338;2022-10-19T14:10:50;14.27;;;5.38;;
70010;SDS011;59543;37.950;-122.338;2022-10-19T14:13:24;14.15;;;5.40;;
70010;SDS011;59543;37.950;-122.338;2022-10-19T14:15:52;14.82;;;5.50;;
70010;SDS011;59543;37.950;-122.338;2022-10-19T14:18:24;12.55;;;5.65;;
70010;SDS011;59543;37.950;-122.338;2022-10-19T14:20:56;11.85;;;5.00;;
70010;SDS011;59543;37.950;-122.338;2022-10-19T14:23:26;18.60;;;5.50;;
70010;SDS011;59543;37.950;-122.338;2022-10-19T14:26:04;7.88;;;4.93;;
70010;SDS011;59543;37.950;-122.338;2022-10-19T14:28:43;13.07;;;5.47;;
70010;SDS011;59543;37.950;-122.338;2022-10-19T14:31:16;12.30;;;5.32;;
70010;SDS011;59543;37.950;-122.338;2022-10-19T14:36:15;14.65;;;5.38;;
70010;SDS011;59543;37.950;-122.338;2022-10-19T14:38:45;12.85;;;5.03;;
70010;SDS011;59543;37.950;-122.338;2022-10-19T14:44:00;11.00;;;5.05;;
70010;SDS011;59543;37.950;-122.338;2022-10-19T14:46:48;20.20;;;5.35;;
70010;SDS011;59543;37.950;-122.338;2022-10-19T14:49:14;8.32;;;5.22;;
70010;SDS011;59543;37.950;-122.338;2022-10-19T14:51:44;24.42;;;6.43;;
70010;SDS011;59543;37.950;-122.338;2022-10-19T14:54:19;24.23;;;6.18;;
70010;SDS011;59543;37.950;-122.338;2022-10-19T14:57:01;16.33;;;5.93;;
70010;SDS011;59543;37.950;-122.338;2022-10-19T15:02:56;25.15;;;7.03;;
70010;SDS011;59543;37.950;-122.338;2022-10-19T15:05:02;24.50;;;6.70;;
70010;SDS011;59543;37.950;-122.338;2022-10-19T15:10:07;18.75;;;5.57;;
70010;SDS011;59543;37.950;-122.338;2022-10-19T15:12:43;14.20;;;5.32;;
70010;SDS011;59543;37.950;-122.338;2022-10-19T15:20:38;12.68;;;5.20;;
70010;SDS011;59543;37.950;-122.338;2022-10-19T15:26:02;15.75;;;4.78;;
70010;SDS011;59543;37.950;-122.338;2022-10-19T15:28:38;14.65;;;5.38;;
70010;SDS011;59543;37.950;-122.338;2022-10-19T15:31:15;12.70;;;4.30;;
70010;SDS011;59543;37.950;-122.338;2022-10-19T15:33:57;20.23;;;4.72;;
70010;SDS011;59543;37.950;-122.338;2022-10-19T15:36:25;23.23;;;4.30;;
70010;SDS011;59543;37.950;-122.338;2022-10-19T15:41:30;13.35;;;4.50;;
70010;SDS011;59543;37.950;-122.338;2022-10-19T15:44:02;16.27;;;5.38;;
70010;SDS011;59543;37.950;-122.338;2022-10-19T15:49:04;19.95;;;6.53;;
70010;SDS011;59543;37.950;-122.338;2022-10-19T15:52:14;20.35;;;6.30;;
70010;SDS011;59543;37.950;-122.338;2022-10-19T15:54:42;20.90;;;6.53;;
70010;SDS011;59543;37.950;-122.338;2022-10-19T15:57:25;22.38;;;6.45;;
70010;SDS011;59543;37.950;-122.338;2022-10-19T16:00:06;13.13;;;5.38;;
70010;SDS011;59543;37.950;-122.338;2022-10-19T16:02:37;13.38;;;5.60;;
70010;SDS011;59543;37.950;-122.338;2022-10-19T16:05:04;14.07;;;5.68;;
70010;SDS011;59543;37.950;-122.338;2022-10-19T16:07:31;17.65;;;5.80;;
70010;SDS011;59543;37.950;-122.338;2022-10-19T16:10:00;36.25;;;5.57;;
70010;SDS011;59543;37.950;-122.338;2022-10-19T16:12:27;12.43;;;5.53;;
70010;SDS011;59543;37.950;-122.338;2022-10-19T16:14:53;16.92;;;5.57;;
70010;SDS011;59543;37.950;-122.338;2022-10-19T16:17:19;15.93;;;6.20;;
70010;SDS011;59543;37.950;-122.338;2022-10-19T16:19:46;15.27;;;6.00;;
70010;SDS011;59543;37.950;-122.338;2022-10-19T16:22:12;21.08;;;5.85;;
70010;SDS011;59543;37.950;-122.338;2022-10-19T16:24:39;22.25;;;6.32;;
70010;SDS011;59543;37.950;-122.338;2022-10-19T16:27:06;14.65;;;6.10;;
70010;SDS011;59543;37.950;-122.338;2022-10-19T16:29:33;21.70;;;6.28;;
70010;SDS011;59543;37.950;-122.338;2022-10-19T16:32:00;17.88;;;6.57;;
70010;SDS011;59543;37.950;-122.338;2022-10-19T16:34:26;26.02;;;6.95;;
70010;SDS011;59543;37.950;-122.338;2022-10-19T16:36:52;23.27;;;7.00;;
70010;SDS011;59543;37.950;-122.338;2022-10-19T16:39:18;17.75;;;7.32;;
70010;SDS011;59543;37.950;-122.338;2022-10-19T16:41:44;32.03;;;7.75;;
70010;SDS011;59543;37.950;-122.338;2022-10-19T16:44:11;21.05;;;7.35;;
70010;SDS011;59543;37.950;-122.338;2022-10-19T16:46:37;18.95;;;7.25;;
70010;SDS011;59543;37.950;-122.338;2022-10-19T16:49:03;16.40;;;6.78;;
70010;SDS011;59543;37.950;-122.338;2022-10-19T16:51:36;27.35;;;8.32;;
70010;SDS011;59543;37.950;-122.338;2022-10-19T16:54:05;16.38;;;7.28;;
70010;SDS011;59543;37.950;-122.338;2022-10-19T16:56:33;23.52;;;8.70;;
70010;SDS011;59543;37.950;-122.338;2022-10-19T16:59:03;19.42;;;7.70;;
70010;SDS011;59543;37.950;-122.338;2022-10-19T17:01:31;17.20;;;6.68;;
70010;SDS011;59543;37.950;-122.338;2022-10-19T17:03:58;22.95;;;7.30;;
70010;SDS011;59543;37.950;-122.338;2022-10-19T17:06:25;25.50;;;7.63;;